Greene, IA

9:57 PM CDT on August 01, 2014 (GMT -0500)
Charles City Municipal (KCCY) Elev 1125 ft | 43.07 °N, 92.61 °W | Change Station

Current weather conditions updated 22 minutes ago

Clear
Clear
64 °F
Feels Like 64 °F
N
4
Wind Variable Wind from SE

Tomorrow is forecast to be nearly the same temperature as today.

Today
High -- | Low -- °F
--% Chance of Precip.
Yesterday
High -- | Low -- °F
Precip. -- in
6:02 AM 8:32 PM
Waxing Crescent, 31% visible
Pressure 30.10 in
Visibility 10.0 miles
Clouds Clear
Dew Point 63 °F
Humidity 94%
Rainfall 0.00 in
Snow Depth Not available.
UV 0 out of 12
Pollen 6.80 out of 12
Air Quality Not available.
Flu Activity Not available.
METAR KCCY 020235Z AUTO 14003KT 10SM CLR 18/17 A3010 RMK AO2

More Conditions Fewer Conditions

Pressure 30.10 in
Visibility 10.0 miles
Clouds Clear
Dew Point 63 °F
Humidity 94%
Rainfall 0.00 in
Snow Depth Not available.
UV 0 out of 12
Pollen 6.80 out of 12
Air Quality Not available.
Flu Activity Not available.
METAR KCCY 020235Z AUTO 14003KT 10SM CLR 18/17 A3010 RMK AO2

More Conditions Fewer Conditions

10-Day Weather Forecast

Almanac

Astronomy

Aug. 01, 2014 Rise Set
Actual Time 6:02 AM CDT 8:32 PM CDT
Civil Twilight 5:30 AM CDT 9:04 PM CDT
Nautical Twilight 4:50 AM CDT 9:43 PM CDT
Astronomical Twilight 4:04 AM CDT 10:28 PM CDT
Moon 11:36 AM CDT (8/1) 11:07 PM CDT (8/1)
Length of Visible Light 15h 33m
Length of Day
14h 29m
Tomorrow will be 2m 15s shorter.
Waxing Crescent, 31% of the Moon is Illuminated
Today
Waxing Crescent
Aug 3
First Quarter
Aug 10
Full
Aug 17
Last Quarter
Aug 25
New

Today's Extremes

State Highs State Lows

Community

WunderPhotos

Upload Photos

1,739,813 photos uploaded!

Nearby

Snow Depth

Station Depth Elevation
No new snow has been reported.

Earthquake Activity

City Distance Mag. Time & Date
No recent earthquake activity has been reported nearby.
Minimum magnitude displayed is 2.5.

Coastal Water Temperatures

Place Temperature
No Stations Reporting

Nearby Weather Stations

Station Location Temp. Heat Index Dew Point Humidity Wind Precip. Elev Updated Type
Wartburg College Observatory, Waverly, IA 70.0 °F - 65 °F 85% WNW  at  1.1 mph 0.00 in / hr 928 ft 9:57 PM CDT Rapid Fire
MesoWest SHEFFI , Chapin, IA 77 °F 75 °F - - North  at  - 0.00 in / hr 1154 ft 8:20 PM CDT MADIS
Beeds Addition, Hampton, IA 73.0 °F 72 °F 68 °F 84% SW  at  1.6 mph 0.00 in / hr 1145 ft 9:57 PM CDT Rapid Fire

Show More Stations Show Fewer Stations